OS58 weather

Hamah Air Base
Hama Governorate, Syria

Public forecast

Using degrees Celsius for public forecast. Weather courtesy of forecast.io.

METAR (pilot weather report)

Closest report is Bassel Al-Assad International Airport, 41.1 nm (76.0 km) WNW. Retrieved 2019/06/26 22:00 UTC (1 hour ago):

OSLK 262200Z VRB03KT CAVOK 23/19 Q1009

TAF (pilot weather forecast)

Forecast is more than 12 hours old.

Closest forecast is Bassel Al-Assad International Airport, 41.1 nm (76.0 km) WNW. Retrieved 2019/06/26 06:36 UTC (17 hours ago):

TAF TAF OSLK 260425Z 2606/2706 26005KT CAVOK TEMPO 2618/2703 14005KT CAVOK